Time;durP1;ratioP1;P1;durP2;ratioP2;P2;SDS_P1;SDS_P2;PMS_P1;PMS_P2;Temp;Humidity;BMP_temperature;BMP_pressure;BME280_temperature;BME280_humidity;BME280_pressure;Samples;Min_cycle;Max_cycle;Signal;HPM_P1;HPM_P2
2022/05/28 00:00:17;;;;;;;9.43;2.03;;;14.10;90.60;;;;;;5033596;28;20116;-67
2022/05/28 00:02:44;;;;;;;13.20;2.60;;;14.10;90.60;;;;;;5033692;28;20268;-67
2022/05/28 00:05:10;;;;;;;8.00;1.50;;;14.10;90.70;;;;;;5033595;28;20040;-67
2022/05/28 00:07:36;;;;;;;9.55;2.20;;;14.10;90.70;;;;;;5033350;28;20109;-67
2022/05/28 00:10:02;;;;;;;11.43;4.57;;;14.10;90.60;;;;;;5033423;28;20468;-67
2022/05/28 00:12:29;;;;;;;10.63;2.13;;;14.10;90.70;;;;;;5033496;28;20509;-67
2022/05/28 00:14:56;;;;;;;9.00;2.00;;;14.00;90.70;;;;;;5033631;28;20037;-67
2022/05/28 00:17:23;;;;;;;7.93;2.05;;;14.00;90.80;;;;;;5033275;28;20482;-66
2022/05/28 00:19:49;;;;;;;12.20;2.97;;;14.00;90.80;;;;;;5033106;28;20034;-67
2022/05/28 00:22:15;;;;;;;8.77;2.25;;;14.00;90.90;;;;;;5033298;28;20025;-66
2022/05/28 00:24:41;;;;;;;10.55;2.92;;;14.00;90.90;;;;;;5033301;28;20508;-67
2022/05/28 00:27:07;;;;;;;9.13;2.67;;;14.10;91.10;;;;;;5033137;28;20034;-67
2022/05/28 00:29:34;;;;;;;12.05;2.25;;;14.00;91.00;;;;;;5033148;28;20044;-67
2022/05/28 00:32:00;;;;;;;12.68;2.65;;;14.00;90.90;;;;;;5033082;28;20037;-68
2022/05/28 00:34:27;;;;;;;9.10;2.22;;;14.00;91.00;;;;;;5033493;28;20394;-67
2022/05/28 00:36:53;;;;;;;14.02;2.40;;;14.00;90.80;;;;;;5032708;28;20039;-67
2022/05/28 00:39:19;;;;;;;10.88;2.58;;;14.00;91.00;;;;;;5032582;28;20025;-67
2022/05/28 00:41:45;;;;;;;10.13;2.28;;;14.00;91.00;;;;;;5033006;28;20044;-67
2022/05/28 00:44:12;;;;;;;8.80;2.28;;;14.00;91.10;;;;;;5032968;28;20025;-68
2022/05/28 00:46:38;;;;;;;12.45;2.30;;;14.00;91.20;;;;;;5032873;28;20104;-68
2022/05/28 00:49:07;;;;;;;8.70;1.95;;;14.00;91.10;;;;;;5032638;28;20183;-67
2022/05/28 00:51:39;;;;;;;11.77;2.40;;;14.00;91.30;;;;;;5032814;28;20336;-67
2022/05/28 00:54:06;;;;;;;7.50;2.15;;;14.00;91.30;;;;;;5032636;28;20064;-67
2022/05/28 00:56:33;;;;;;;8.05;1.70;;;14.00;91.20;;;;;;5032497;28;20040;-66
2022/05/28 00:58:59;;;;;;;8.90;2.40;;;14.00;91.40;;;;;;5032398;28;20037;-67
2022/05/28 01:01:29;;;;;;;10.00;2.22;;;14.00;91.30;;;;;;5033020;28;20029;-67
2022/05/28 01:04:07;;;;;;;12.23;2.42;;;14.00;91.40;;;;;;5032963;28;20397;-67
2022/05/28 01:06:57;;;;;;;7.53;2.08;;;14.00;91.20;;;;;;5032455;28;20489;-67
2022/05/28 01:09:52;;;;;;;9.52;1.67;;;13.90;91.30;;;;;;5031932;28;20365;-67
2022/05/28 01:12:47;;;;;;;10.07;2.03;;;14.00;91.40;;;;;;5031115;28;20478;-67
2022/05/28 01:15:23;;;;;;;8.10;2.05;;;13.90;91.50;;;;;;5012429;28;20099;-67
2022/05/28 01:17:54;;;;;;;8.05;1.65;;;14.00;91.50;;;;;;5032063;28;20029;-67
2022/05/28 01:20:30;;;;;;;10.50;1.83;;;14.00;91.40;;;;;;5032060;28;20472;-67
2022/05/28 01:23:44;;;;;;;8.68;1.88;;;14.00;91.40;;;;;;5032142;28;20072;-67
2022/05/28 01:26:34;;;;;;;11.93;1.83;;;14.00;91.50;;;;;;5014798;28;20052;-67
2022/05/28 01:29:40;;;;;;;11.45;2.00;;;14.00;91.60;;;;;;5032033;28;20060;-66
2022/05/28 01:32:06;;;;;;;12.23;2.10;;;14.00;91.60;;;;;;5031858;28;20029;-67
2022/05/28 01:34:33;;;;;;;8.55;2.10;;;13.90;91.60;;;;;;5032398;28;20156;-67
2022/05/28 01:37:01;;;;;;;10.07;1.90;;;13.90;91.60;;;;;;5031687;28;20030;-67
2022/05/28 01:39:29;;;;;;;5.40;1.60;;;13.90;91.70;;;;;;5032290;28;20037;-67
2022/05/28 01:41:56;;;;;;;9.98;2.10;;;13.90;91.90;;;;;;5031825;28;20332;-67
2022/05/28 01:44:23;;;;;;;7.72;1.90;;;13.80;91.90;;;;;;5031838;28;20021;-67
2022/05/28 01:46:50;;;;;;;8.23;2.15;;;13.80;92.00;;;;;;5031584;28;20048;-67
2022/05/28 01:49:19;;;;;;;13.02;2.67;;;13.80;92.20;;;;;;5031512;28;20036;-67
2022/05/28 01:51:54;;;;;;;10.30;2.00;;;13.80;92.20;;;;;;5029741;28;20057;-66
2022/05/28 01:54:25;;;;;;;13.57;2.33;;;13.80;92.40;;;;;;5031512;28;20059;-67
2022/05/28 01:56:54;;;;;;;11.13;2.00;;;13.80;92.30;;;;;;5031442;28;20030;-67
2022/05/28 01:59:26;;;;;;;21.02;2.80;;;13.80;92.40;;;;;;5031519;28;20033;-67
2022/05/28 02:01:56;;;;;;;8.55;1.77;;;13.70;92.40;;;;;;5031605;28;20030;-68
2022/05/28 02:04:22;;;;;;;13.77;2.50;;;13.70;92.50;;;;;;5031498;28;20083;-67
2022/05/28 02:06:48;;;;;;;8.93;2.47;;;13.70;92.50;;;;;;5031059;28;20047;-67
2022/05/28 02:09:19;;;;;;;10.70;1.90;;;13.70;92.60;;;;;;5031121;28;20095;-67
2022/05/28 02:11:45;;;;;;;12.25;2.13;;;13.60;92.70;;;;;;5031301;28;20061;-67
2022/05/28 02:14:13;;;;;;;9.27;1.80;;;13.70;92.80;;;;;;5031251;28;20063;-67
2022/05/28 02:16:53;;;;;;;12.13;2.50;;;13.60;92.90;;;;;;5031158;28;20067;-66
2022/05/28 02:19:42;;;;;;;10.93;2.43;;;13.60;93.00;;;;;;5031096;28;20048;-67
2022/05/28 02:22:17;;;;;;;7.68;2.03;;;13.60;93.10;;;;;;5031166;28;20030;-67
2022/05/28 02:24:50;;;;;;;10.52;2.10;;;13.60;93.00;;;;;;5031415;28;20104;-67
2022/05/28 02:27:19;;;;;;;12.23;4.57;;;13.60;93.40;;;;;;5029748;28;20525;-67
2022/05/28 02:29:46;;;;;;;10.43;2.13;;;13.50;93.20;;;;;;5031057;28;20029;-68
2022/05/28 02:32:21;;;;;;;9.13;2.10;;;13.50;93.40;;;;;;5030067;28;20034;-66
2022/05/28 02:34:50;;;;;;;13.57;2.55;;;13.50;93.60;;;;;;5031090;28;20505;-67
2022/05/28 02:37:20;;;;;;;13.10;2.50;;;13.50;93.60;;;;;;5031013;28;20064;-67
2022/05/28 02:39:47;;;;;;;13.77;2.30;;;13.40;93.70;;;;;;5030875;28;20510;-68
2022/05/28 02:42:13;;;;;;;13.05;3.00;;;13.40;93.80;;;;;;5031346;28;20379;-67
2022/05/28 02:44:40;;;;;;;11.65;2.38;;;13.40;93.90;;;;;;5031068;28;20497;-67
2022/05/28 02:47:06;;;;;;;12.15;2.80;;;13.40;94.00;;;;;;5030729;28;20535;-67
2022/05/28 02:49:33;;;;;;;9.75;2.75;;;13.40;94.10;;;;;;5031032;28;20037;-66
2022/05/28 02:52:04;;;;;;;8.35;2.47;;;13.40;94.20;;;;;;5030843;28;20104;-67
2022/05/28 02:54:31;;;;;;;13.38;2.50;;;13.40;94.20;;;;;;5030736;28;20128;-67
2022/05/28 02:56:57;;;;;;;8.48;2.00;;;13.40;94.30;;;;;;5031191;28;20394;-68
2022/05/28 02:59:23;;;;;;;14.75;2.17;;;13.40;94.40;;;;;;5030853;28;20026;-67
2022/05/28 03:01:50;;;;;;;10.52;2.60;;;13.40;94.50;;;;;;5031148;28;20033;-68
2022/05/28 03:04:17;;;;;;;13.43;2.65;;;13.40;94.50;;;;;;5034989;28;20052;-67
2022/05/28 03:06:43;;;;;;;9.93;2.20;;;13.40;94.60;;;;;;5034552;28;20034;-67
2022/05/28 03:09:09;;;;;;;9.85;2.58;;;13.30;94.80;;;;;;5033157;28;20036;-67
2022/05/28 03:11:37;;;;;;;9.50;2.35;;;13.30;94.90;;;;;;5034535;28;20033;-67
2022/05/28 03:14:04;;;;;;;13.38;2.30;;;13.30;95.10;;;;;;5034621;28;20083;-67
2022/05/28 03:16:30;;;;;;;8.90;2.00;;;13.30;95.20;;;;;;5034371;28;20033;-67
2022/05/28 03:18:56;;;;;;;7.57;2.17;;;13.30;95.30;;;;;;5034167;28;20068;-68
2022/05/28 03:21:22;;;;;;;11.52;2.78;;;13.30;95.50;;;;;;5034401;28;20029;-68
2022/05/28 03:23:49;;;;;;;13.48;2.45;;;13.30;95.60;;;;;;5034222;28;20084;-67
2022/05/28 03:26:22;;;;;;;11.80;3.00;;;13.30;95.70;;;;;;5034055;28;20611;-67
2022/05/28 03:28:49;;;;;;;13.15;3.83;;;13.30;95.80;;;;;;5034175;28;20445;-67
2022/05/28 03:31:16;;;;;;;10.07;2.72;;;13.30;95.90;;;;;;5034241;28;20033;-67
2022/05/28 03:33:42;;;;;;;10.57;2.65;;;13.20;96.10;;;;;;5034274;28;20064;-68
2022/05/28 03:36:09;;;;;;;11.95;2.92;;;13.30;96.40;;;;;;5033848;28;20116;-67
2022/05/28 03:38:36;;;;;;;13.77;2.87;;;13.30;96.60;;;;;;5032514;28;20029;-67
2022/05/28 03:41:02;;;;;;;10.47;2.77;;;13.20;96.60;;;;;;5034004;28;20029;-68
2022/05/28 03:43:29;;;;;;;15.75;3.10;;;13.30;96.80;;;;;;5034241;28;20252;-67
2022/05/28 03:45:55;;;;;;;12.98;3.45;;;13.30;96.90;;;;;;5033936;28;20619;-67
2022/05/28 03:48:22;;;;;;;11.70;2.72;;;13.30;97.00;;;;;;5033908;28;20033;-67
2022/05/28 03:50:48;;;;;;;12.70;2.95;;;13.30;97.00;;;;;;5033669;28;20033;-67
2022/05/28 03:53:15;;;;;;;10.95;2.80;;;13.30;97.20;;;;;;5033620;28;20511;-68
2022/05/28 03:55:42;;;;;;;12.13;3.03;;;13.20;97.20;;;;;;5033823;28;20033;-67
2022/05/28 03:58:08;;;;;;;11.05;2.45;;;13.20;97.50;;;;;;5033518;28;20094;-66
2022/05/28 04:00:35;;;;;;;14.23;2.53;;;13.20;97.70;;;;;;5032100;28;20036;-67
2022/05/28 04:03:02;;;;;;;12.97;3.97;;;13.20;97.80;;;;;;5033655;28;20024;-66
2022/05/28 04:05:28;;;;;;;14.20;2.93;;;13.20;98.00;;;;;;5033564;28;20052;-67
2022/05/28 04:07:54;;;;;;;13.52;3.67;;;13.20;98.10;;;;;;5033378;28;20036;-67
2022/05/28 04:10:21;;;;;;;13.43;3.43;;;13.20;98.20;;;;;;5033320;28;20414;-67
2022/05/28 04:12:47;;;;;;;13.32;3.15;;;13.20;98.20;;;;;;5033190;28;20041;-67
2022/05/28 04:15:13;;;;;;;13.70;3.33;;;13.20;98.30;;;;;;5033330;28;20572;-67
2022/05/28 04:17:40;;;;;;;15.53;3.50;;;13.20;98.50;;;;;;5033406;28;20394;-67
2022/05/28 04:20:09;;;;;;;13.23;2.93;;;13.10;98.60;;;;;;5033017;28;20478;-67
2022/05/28 04:22:35;;;;;;;12.00;2.85;;;13.10;98.80;;;;;;5033377;28;20029;-68
2022/05/28 04:25:01;;;;;;;14.43;2.83;;;13.10;98.90;;;;;;5032161;28;20041;-67
2022/05/28 04:27:27;;;;;;;10.03;2.73;;;13.10;99.00;;;;;;5033077;28;20140;-67
2022/05/28 04:29:52;;;;;;;12.07;3.17;;;13.10;99.20;;;;;;5032998;28;20088;-67
2022/05/28 04:32:18;;;;;;;13.17;3.07;;;13.10;99.50;;;;;;5033136;28;20025;-67
2022/05/28 04:34:45;;;;;;;13.77;3.30;;;13.10;99.40;;;;;;5031960;28;20030;-67
2022/05/28 04:37:11;;;;;;;14.48;3.47;;;13.10;99.50;;;;;;5033092;28;20429;-67
2022/05/28 04:39:37;;;;;;;11.87;3.40;;;13.10;99.60;;;;;;5032683;28;20034;-67
2022/05/28 04:42:04;;;;;;;11.50;2.90;;;13.00;99.80;;;;;;5031795;28;20489;-68
2022/05/28 04:44:30;;;;;;;10.60;3.37;;;13.00;99.90;;;;;;5033200;28;20378;-68
2022/05/28 04:46:56;;;;;;;16.23;3.77;;;13.00;99.90;;;;;;5032715;28;20545;-67
2022/05/28 04:49:22;;;;;;;18.80;5.23;;;13.00;99.90;;;;;;5032723;28;20121;-67
2022/05/28 04:51:48;;;;;;;16.43;5.10;;;13.00;99.90;;;;;;5032761;28;20509;-67
2022/05/28 04:54:14;;;;;;;20.73;6.90;;;13.10;99.90;;;;;;5047528;22;20053;-65
2022/05/28 04:56:40;;;;;;;15.73;5.13;;;13.00;99.90;;;;;;5032387;28;20025;-65
2022/05/28 04:59:06;;;;;;;20.87;7.17;;;13.00;99.90;;;;;;5032256;28;20042;-65
2022/05/28 05:01:32;;;;;;;27.33;8.80;;;13.10;99.90;;;;;;5032560;28;20386;-65
2022/05/28 05:03:58;;;;;;;20.63;8.27;;;13.10;99.90;;;;;;5032965;28;20364;-66
2022/05/28 05:06:24;;;;;;;32.23;11.33;;;13.10;99.90;;;;;;5032377;28;20057;-66
2022/05/28 05:08:50;;;;;;;16.77;8.23;;;13.10;99.90;;;;;;5032305;28;20025;-66
2022/05/28 05:11:16;;;;;;;25.83;8.77;;;13.10;99.90;;;;;;5032363;28;20049;-66
2022/05/28 05:13:42;;;;;;;20.07;6.97;;;13.20;99.90;;;;;;5032569;28;20033;-66
2022/05/28 05:16:15;;;;;;;19.23;5.70;;;13.20;99.90;;;;;;5032120;28;20034;-66
2022/05/28 05:18:41;;;;;;;20.27;5.37;;;13.20;99.90;;;;;;5032252;28;20022;-66
2022/05/28 05:21:06;;;;;;;12.63;4.00;;;13.20;99.90;;;;;;5032559;28;20022;-66
2022/05/28 05:23:32;;;;;;;17.43;3.97;;;13.20;99.90;;;;;;5032248;28;20489;-66
2022/05/28 05:25:58;;;;;;;16.17;4.07;;;13.20;99.90;;;;;;5030237;28;20037;-65
2022/05/28 05:28:24;;;;;;;18.37;3.90;;;13.30;99.90;;;;;;5031998;28;20033;-65
2022/05/28 05:30:50;;;;;;;10.33;2.97;;;13.30;99.90;;;;;;5031696;28;20029;-66
2022/05/28 05:33:16;;;;;;;11.57;3.20;;;13.30;99.90;;;;;;5031862;28;20041;-66
2022/05/28 05:35:42;;;;;;;9.50;3.07;;;13.40;99.90;;;;;;5031992;28;20037;-66
2022/05/28 05:38:09;;;;;;;10.83;2.70;;;13.40;99.90;;;;;;5031526;28;20100;-66
2022/05/28 05:40:39;;;;;;;12.07;3.17;;;13.40;99.90;;;;;;5031552;28;20026;-66
2022/05/28 05:43:06;;;;;;;10.73;2.70;;;13.50;99.90;;;;;;5031562;28;20053;-66
2022/05/28 05:45:32;;;;;;;11.03;2.37;;;13.50;99.90;;;;;;5031560;28;20036;-66
2022/05/28 05:47:58;;;;;;;11.13;2.60;;;13.50;99.90;;;;;;5031482;28;20096;-66
2022/05/28 05:50:24;;;;;;;12.10;3.13;;;13.50;99.90;;;;;;5031498;28;20025;-66
2022/05/28 05:52:50;;;;;;;11.32;2.60;;;13.60;99.90;;;;;;5031656;28;20108;-66
2022/05/28 05:55:17;;;;;;;13.85;3.35;;;13.60;99.90;;;;;;5031501;28;20436;-66
2022/05/28 05:57:43;;;;;;;11.85;2.40;;;13.60;99.90;;;;;;5031726;28;20029;-66
2022/05/28 06:00:09;;;;;;;12.88;2.92;;;13.70;99.90;;;;;;5031097;28;20453;-66
2022/05/28 06:02:35;;;;;;;12.35;2.70;;;13.70;99.90;;;;;;5031381;28;20033;-65
2022/05/28 06:05:01;;;;;;;11.63;2.50;;;13.60;99.90;;;;;;5031587;28;20539;-65
2022/05/28 06:07:27;;;;;;;11.17;2.43;;;13.60;99.90;;;;;;5031207;28;20029;-65
2022/05/28 06:09:53;;;;;;;11.43;2.30;;;13.60;99.90;;;;;;5031116;28;20025;-65
2022/05/28 06:12:19;;;;;;;9.38;2.58;;;13.60;99.90;;;;;;5031251;28;20360;-65
2022/05/28 06:14:45;;;;;;;10.77;2.47;;;13.60;99.90;;;;;;5031080;28;20049;-66
2022/05/28 06:17:11;;;;;;;12.53;3.10;;;13.60;99.90;;;;;;5030980;28;20072;-66
2022/05/28 06:19:37;;;;;;;8.53;2.23;;;13.50;99.90;;;;;;5030931;28;20061;-66
2022/05/28 06:22:03;;;;;;;12.70;2.85;;;13.60;99.90;;;;;;5031106;28;20022;-65
2022/05/28 06:24:29;;;;;;;9.65;2.28;;;13.60;99.90;;;;;;5031001;28;20057;-66
2022/05/28 06:27:02;;;;;;;10.85;2.30;;;13.70;99.90;;;;;;5029680;28;20497;-66
2022/05/28 06:29:28;;;;;;;10.27;2.30;;;13.70;99.90;;;;;;5030652;28;20044;-66
2022/05/28 06:31:54;;;;;;;8.88;2.28;;;13.70;99.90;;;;;;5031189;28;20060;-65
2022/05/28 06:34:20;;;;;;;15.00;3.03;;;13.70;99.90;;;;;;5030891;28;20397;-66
2022/05/28 06:36:46;;;;;;;10.48;2.90;;;13.80;99.90;;;;;;5030441;28;20116;-66
2022/05/28 06:39:13;;;;;;;8.32;2.00;;;13.70;99.90;;;;;;5030634;28;20059;-66
2022/05/28 06:41:39;;;;;;;8.20;1.98;;;13.80;99.90;;;;;;5030731;28;20039;-66
2022/05/28 06:44:05;;;;;;;7.75;1.77;;;13.80;99.60;;;;;;5030819;28;20029;-66
2022/05/28 06:46:31;;;;;;;8.57;1.75;;;13.90;99.20;;;;;;5030558;28;20033;-66
2022/05/28 06:48:57;;;;;;;9.75;2.00;;;13.90;98.90;;;;;;5029416;28;20136;-66
2022/05/28 06:51:22;;;;;;;10.95;2.30;;;14.00;98.80;;;;;;5030775;28;20056;-66
2022/05/28 06:53:50;;;;;;;5.38;1.40;;;14.00;98.50;;;;;;5030694;28;20132;-66
2022/05/28 06:56:18;;;;;;;7.80;1.50;;;14.00;98.00;;;;;;5030552;28;20468;-66
2022/05/28 06:58:44;;;;;;;9.85;1.50;;;14.00;97.70;;;;;;5030512;28;20033;-66
2022/05/28 07:01:11;;;;;;;7.28;1.55;;;14.00;97.30;;;;;;5029522;28;20036;-66
2022/05/28 07:03:39;;;;;;;5.50;1.00;;;14.10;97.30;;;;;;5029610;28;20418;-66
2022/05/28 07:06:06;;;;;;;10.68;1.45;;;14.10;97.30;;;;;;5029703;28;20398;-66
2022/05/28 07:08:32;;;;;;;5.60;1.38;;;14.10;97.10;;;;;;5030559;28;20383;-66
2022/05/28 07:11:00;;;;;;;5.15;1.02;;;14.20;96.80;;;;;;5029501;28;20470;-66
2022/05/28 07:13:28;;;;;;;5.60;0.90;;;14.20;96.10;;;;;;5030902;28;20060;-66
2022/05/28 07:15:54;;;;;;;8.43;1.27;;;14.20;95.90;;;;;;5029154;28;20038;-65
2022/05/28 07:18:21;;;;;;;5.53;1.00;;;14.30;95.40;;;;;;5029115;28;20448;-66
2022/05/28 07:20:48;;;;;;;6.97;1.50;;;14.20;95.00;;;;;;5030334;28;20029;-66
2022/05/28 07:23:24;;;;;;;6.78;2.17;;;14.20;94.60;;;;;;5029342;28;20055;-66
2022/05/28 07:25:57;;;;;;;9.18;2.17;;;14.20;94.50;;;;;;5030518;28;20069;-66
2022/05/28 07:28:26;;;;;;;7.00;1.55;;;14.20;94.90;;;;;;5030384;28;20029;-66
2022/05/28 07:30:52;;;;;;;;;;;14.20;94.60;;;;;;5029416;28;20021;-65
2022/05/28 07:33:19;;;;;;;9.57;1.70;;;14.20;94.30;;;;;;5030786;28;20285;-66
2022/05/28 07:35:46;;;;;;;8.20;1.40;;;14.20;94.10;;;;;;5030153;28;20029;-66
2022/05/28 07:38:12;;;;;;;4.97;1.30;;;14.30;93.90;;;;;;5030564;28;20041;-66
2022/05/28 07:40:38;;;;;;;9.68;1.10;;;14.30;94.10;;;;;;5030030;28;20053;-65
2022/05/28 07:43:04;;;;;;;5.90;1.00;;;14.40;94.30;;;;;;5030321;28;20552;-66
2022/05/28 07:45:36;;;;;;;6.38;1.05;;;14.40;94.20;;;;;;5030131;28;20056;-66
2022/05/28 07:48:02;;;;;;;5.90;1.20;;;14.50;94.30;;;;;;5030442;28;20030;-66
2022/05/28 07:50:28;;;;;;;6.57;1.40;;;14.50;94.00;;;;;;5033428;28;20107;-66
2022/05/28 07:52:55;;;;;;;6.55;1.20;;;14.50;93.00;;;;;;5033970;28;20030;-66
2022/05/28 07:55:21;;;;;;;3.90;1.05;;;14.50;92.80;;;;;;5033494;28;20040;-65
2022/05/28 07:57:47;;;;;;;5.55;1.00;;;14.60;92.60;;;;;;5033566;28;20021;-65
2022/05/28 08:00:14;;;;;;;7.68;1.23;;;14.60;92.50;;;;;;5033442;28;20116;-65
2022/05/28 08:02:40;;;;;;;3.42;0.98;;;14.50;92.30;;;;;;5033491;28;20501;-66
2022/05/28 08:05:07;;;;;;;8.60;1.10;;;14.50;92.00;;;;;;5033333;28;20045;-66
2022/05/28 08:07:33;;;;;;;6.03;1.25;;;14.60;92.10;;;;;;5033361;28;20017;-65
2022/05/28 08:09:59;;;;;;;8.38;1.20;;;14.60;91.80;;;;;;5033281;28;20431;-66
2022/05/28 08:12:25;;;;;;;12.00;1.25;;;14.60;90.20;;;;;;5033501;28;20061;-65
2022/05/28 08:14:51;;;;;;;6.93;1.13;;;14.70;90.20;;;;;;5033507;28;20383;-65
2022/05/28 08:17:17;;;;;;;5.07;1.33;;;14.80;90.80;;;;;;5032976;28;20034;-66
2022/05/28 08:19:44;;;;;;;5.78;1.27;;;14.90;91.10;;;;;;5033101;28;20371;-66
2022/05/28 08:24:54;;;;;;;3.67;1.00;;;15.00;91.50;;;;;;5033243;28;20425;-66
2022/05/28 08:27:20;;;;;;;5.20;0.98;;;15.10;91.50;;;;;;5032958;28;20029;-66
2022/05/28 08:29:46;;;;;;;5.95;1.20;;;15.00;91.20;;;;;;5032893;28;20034;-66
2022/05/28 08:32:16;;;;;;;5.72;1.27;;;15.00;91.30;;;;;;5032911;28;20028;-65
2022/05/28 08:34:43;;;;;;;7.45;1.35;;;15.00;91.50;;;;;;5033031;28;20034;-66
2022/05/28 08:37:11;;;;;;;6.95;1.27;;;15.00;91.50;;;;;;5032872;28;20033;-66
2022/05/28 08:39:38;;;;;;;7.40;1.50;;;15.00;91.00;;;;;;5031375;28;20512;-66
2022/05/28 08:42:05;;;;;;;7.20;1.10;;;14.90;91.40;;;;;;5032995;28;20021;-66
2022/05/28 08:44:39;;;;;;;8.07;1.73;;;14.90;91.60;;;;;;5032884;28;20025;-66
2022/05/28 08:47:22;;;;;;;7.30;1.33;;;15.00;91.40;;;;;;5032617;28;20063;-66
2022/05/28 08:49:50;;;;;;;4.28;1.08;;;15.00;91.30;;;;;;5032660;28;20083;-65
2022/05/28 08:52:23;;;;;;;5.63;0.93;;;15.00;89.30;;;;;;5032753;28;20031;-66
2022/05/28 08:55:01;;;;;;;7.00;1.02;;;15.10;88.00;;;;;;5032650;28;20095;-65
2022/05/28 08:57:48;;;;;;;5.90;1.20;;;15.20;87.30;;;;;;5032403;28;20033;-64
2022/05/28 09:00:21;;;;;;;4.32;1.15;;;15.20;86.40;;;;;;5032399;28;20035;-65
2022/05/28 09:02:54;;;;;;;7.82;1.20;;;15.20;86.80;;;;;;5032573;28;20474;-65
2022/05/28 09:05:26;;;;;;;8.50;1.80;;;15.20;87.60;;;;;;5032474;28;20026;-65
2022/05/28 09:07:57;;;;;;;5.50;1.60;;;15.30;87.60;;;;;;5032321;28;20439;-65
2022/05/28 09:10:23;;;;;;;8.75;1.63;;;15.30;87.90;;;;;;5032522;28;20025;-64
2022/05/28 09:13:01;;;;;;;6.00;1.70;;;15.40;86.60;;;;;;5032254;28;20452;-65
2022/05/28 09:15:27;;;;;;;6.65;1.60;;;15.40;86.30;;;;;;5032298;28;20121;-64
2022/05/28 09:17:56;;;;;;;6.22;1.58;;;15.30;85.00;;;;;;5031945;28;20057;-65
2022/05/28 09:20:37;;;;;;;;;;;15.30;84.90;;;;;;5032428;28;20030;-65
2022/05/28 09:23:03;;;;;;;6.57;1.42;;;15.30;83.70;;;;;;5032160;28;19954;-65
2022/05/28 09:25:34;;;;;;;8.50;1.48;;;15.40;82.20;;;;;;5032069;28;20057;-65
2022/05/28 09:28:17;;;;;;;4.72;1.23;;;15.50;81.50;;;;;;5032159;28;20421;-65
2022/05/28 09:30:43;;;;;;;3.92;1.00;;;15.60;81.70;;;;;;5031920;28;20032;-65
2022/05/28 09:33:28;;;;;;;7.93;1.30;;;15.60;82.40;;;;;;5031993;28;20037;-65
2022/05/28 09:36:23;;;;;;;5.47;1.23;;;15.60;83.40;;;;;;5031863;28;20053;-65
2022/05/28 09:39:23;;;;;;;6.30;1.42;;;15.60;84.40;;;;;;5031693;28;20026;-65
2022/05/28 09:42:17;;;;;;;6.57;1.20;;;15.60;84.30;;;;;;5031748;28;20021;-65
2022/05/28 09:44:59;;;;;;;4.70;1.10;;;15.50;84.20;;;;;;5030591;28;20060;-65
2022/05/28 09:47:25;;;;;;;6.03;1.00;;;15.50;85.60;;;;;;5031811;28;20390;-66
2022/05/28 09:49:56;;;;;;;8.85;1.98;;;15.50;85.90;;;;;;5031701;28;20025;-66
2022/05/28 09:52:34;;;;;;;6.40;1.55;;;15.40;86.20;;;;;;5031526;28;20390;-65
2022/05/28 09:55:17;;;;;;;7.38;1.60;;;15.40;86.80;;;;;;5031508;28;20414;-66
2022/05/28 09:57:51;;;;;;;11.10;3.90;;;15.30;87.10;;;;;;5030110;28;20110;-66
2022/05/28 10:00:20;;;;;;;9.48;2.95;;;15.30;87.20;;;;;;5031202;28;20033;-66
2022/05/28 10:05:57;;;;;;;9.38;2.15;;;15.50;85.20;;;;;;5031207;28;20025;-66
2022/05/28 10:08:31;;;;;;;4.93;1.60;;;15.60;83.50;;;;;;5031133;28;20065;-66
2022/05/28 10:11:01;;;;;;;5.70;1.40;;;15.70;84.10;;;;;;5030798;28;20034;-66
2022/05/28 10:13:30;;;;;;;8.27;2.25;;;15.70;84.30;;;;;;5031240;28;20375;-66
2022/05/28 10:15:59;;;;;;;6.32;1.90;;;15.70;84.20;;;;;;5030928;28;20040;-66
2022/05/28 10:18:28;;;;;;;;;;;15.80;84.90;;;;;;5031319;28;20037;-66
2022/05/28 10:21:15;;;;;;;11.32;1.67;;;15.80;84.40;;;;;;5030967;28;19913;-66
2022/05/28 10:23:44;;;;;;;8.55;1.55;;;15.90;83.10;;;;;;5031023;28;20053;-66
2022/05/28 10:26:22;;;;;;;8.55;1.90;;;15.90;83.00;;;;;;5030957;28;20064;-65
2022/05/28 10:28:51;;;;;;;10.88;2.10;;;15.80;84.30;;;;;;5031015;28;20116;-65
2022/05/28 10:31:31;;;;;;;10.23;2.63;;;15.80;85.90;;;;;;5031333;28;20033;-65
2022/05/28 10:33:57;;;;;;;6.85;1.70;;;15.80;86.40;;;;;;5031065;28;20049;-65
2022/05/28 10:36:31;;;;;;;11.45;2.05;;;15.80;86.50;;;;;;5030873;28;20033;-65
2022/05/28 10:39:12;;;;;;;6.60;1.40;;;15.90;86.70;;;;;;5030813;28;20029;-65
2022/05/28 10:41:40;;;;;;;9.98;1.52;;;16.10;86.60;;;;;;5030885;28;20034;-65
2022/05/28 10:44:06;;;;;;;11.70;2.28;;;16.10;85.60;;;;;;5030909;28;20079;-65
2022/05/28 10:47:04;;;;;;;9.23;1.50;;;16.00;86.20;;;;;;5030842;28;20030;-65
2022/05/28 10:49:39;;;;;;;8.38;2.00;;;16.00;86.80;;;;;;5030872;28;20025;-65
2022/05/28 10:52:29;;;;;;;7.90;2.20;;;15.90;87.30;;;;;;5031011;28;20064;-65
2022/05/28 10:55:08;;;;;;;11.13;2.17;;;15.80;87.90;;;;;;5043452;23;20042;-66
2022/05/28 10:57:40;;;;;;;;;;;15.80;89.30;;;;;;5029665;28;20049;-66
2022/05/28 11:00:11;;;;;;;9.18;2.08;;;15.90;88.50;;;;;;5030476;28;20401;-66
2022/05/28 11:03:05;;;;;;;7.45;2.45;;;15.90;88.90;;;;;;5030785;28;20112;-66
2022/05/28 11:05:48;;;;;;;6.38;1.80;;;16.00;83.80;;;;;;5030653;28;20375;-66
2022/05/28 11:08:27;;;;;;;6.30;2.00;;;16.00;83.50;;;;;;5030634;28;20367;-66
2022/05/28 11:10:56;;;;;;;7.85;1.90;;;15.90;84.10;;;;;;5030414;28;20447;-66
2022/05/28 11:13:56;;;;;;;10.80;2.10;;;15.90;85.50;;;;;;5029297;28;20060;-66
2022/05/28 11:16:38;;;;;;;6.82;1.50;;;15.80;85.10;;;;;;5030326;28;20416;-66
2022/05/28 11:19:23;;;;;;;8.57;1.45;;;15.80;85.10;;;;;;5030178;28;20029;-66
2022/05/28 11:22:24;;;;;;;6.93;1.73;;;15.80;83.30;;;;;;5030324;28;20018;-66
2022/05/28 11:24:58;;;;;;;4.13;1.20;;;15.70;79.00;;;;;;5013757;28;20123;-66
2022/05/28 11:27:51;;;;;;;7.20;1.50;;;15.70;77.90;;;;;;5034186;28;20036;-66
2022/05/28 11:30:17;;;;;;;4.20;1.33;;;15.70;79.00;;;;;;5034011;28;20065;-66
2022/05/28 11:32:49;;;;;;;3.53;1.15;;;15.80;79.20;;;;;;5034202;28;20064;-66
2022/05/28 11:35:37;;;;;;;5.03;1.20;;;15.90;78.30;;;;;;5034191;28;20030;-67
2022/05/28 11:38:18;;;;;;;10.48;1.50;;;16.10;78.60;;;;;;5033944;28;20128;-67
2022/05/28 11:40:47;;;;;;;5.55;1.30;;;16.30;78.20;;;;;;5033851;28;20025;-66
2022/05/28 11:43:19;;;;;;;7.07;1.70;;;16.40;78.60;;;;;;5034018;28;20033;-66
2022/05/28 11:46:00;;;;;;;5.22;1.23;;;16.40;78.80;;;;;;5033655;28;20021;-66
2022/05/28 11:51:31;;;;;;;6.40;1.42;;;16.40;78.40;;;;;;5033805;28;20029;-66
2022/05/28 11:54:12;;;;;;;9.68;1.95;;;16.40;79.20;;;;;;5034125;28;20026;-66
2022/05/28 11:56:38;;;;;;;6.00;1.60;;;16.30;79.60;;;;;;5033510;28;20041;-66
2022/05/28 11:59:13;;;;;;;5.70;1.48;;;16.30;77.90;;;;;;5033478;28;20370;-66
2022/05/28 12:02:10;;;;;;;5.80;1.73;;;16.30;75.30;;;;;;5033588;28;20029;-66
2022/05/28 12:04:41;;;;;;;7.43;1.42;;;16.40;75.60;;;;;;5033476;28;20045;-66
2022/05/28 12:07:29;;;;;;;5.57;1.52;;;16.40;75.30;;;;;;5033347;28;20025;-66
2022/05/28 12:09:55;;;;;;;6.18;1.70;;;16.50;75.30;;;;;;5033505;28;20434;-66
2022/05/28 12:12:26;;;;;;;6.65;1.40;;;16.70;74.90;;;;;;5033433;28;20159;-66
2022/05/28 12:15:14;;;;;;;8.45;1.70;;;16.80;74.20;;;;;;5032210;28;20460;-66
2022/05/28 12:17:41;;;;;;;4.05;1.10;;;16.80;73.60;;;;;;5033201;28;20021;-66
2022/05/28 12:20:10;;;;;;;5.72;1.25;;;16.90;73.40;;;;;;5032913;28;20536;-66
2022/05/28 12:22:41;;;;;;;;;;;16.90;74.80;;;;;;5033659;28;20508;-66
2022/05/28 12:25:15;;;;;;;7.50;1.40;;;16.80;74.80;;;;;;5033320;28;19924;-66
2022/05/28 12:27:44;;;;;;;9.57;2.50;;;16.90;76.20;;;;;;5032863;28;20033;-66
2022/05/28 12:30:43;;;;;;;7.22;2.33;;;17.10;76.00;;;;;;5032938;28;20033;-66
2022/05/28 12:33:22;;;;;;;9.23;2.03;;;17.20;70.90;;;;;;5033149;28;20471;-66
2022/05/28 12:35:56;;;;;;;;;;;17.50;70.20;;;;;;5032970;28;20116;-67
2022/05/28 12:38:38;;;;;;;6.10;1.75;;;17.70;70.00;;;;;;5032904;28;19939;-66
2022/05/28 12:41:05;;;;;;;5.45;1.02;;;17.80;68.30;;;;;;5032943;28;20048;-66
2022/05/28 12:43:36;;;;;;;6.20;1.65;;;17.90;67.90;;;;;;5032980;28;20057;-66
2022/05/28 12:46:18;;;;;;;5.57;1.42;;;17.90;68.20;;;;;;5033006;28;20388;-66
2022/05/28 12:48:45;;;;;;;8.32;1.60;;;17.70;69.10;;;;;;5032467;28;20042;-66
2022/05/28 12:51:36;;;;;;;7.32;1.83;;;17.50;70.30;;;;;;5032888;28;20494;-66
2022/05/28 12:54:04;;;;;;;6.13;1.42;;;17.30;71.40;;;;;;5032778;28;20427;-66
2022/05/28 12:56:33;;;;;;;17.52;1.95;;;17.20;71.50;;;;;;5032700;28;20025;-66
2022/05/28 12:59:17;;;;;;;;;;;17.10;71.70;;;;;;5032807;28;20104;-66
2022/05/28 13:02:14;;;;;;;6.05;1.20;;;17.00;73.00;;;;;;5032601;28;20289;-66
2022/05/28 13:05:00;;;;;;;10.40;1.80;;;16.90;74.30;;;;;;5002005;28;20037;-66
2022/05/28 13:07:43;;;;;;;6.10;1.50;;;16.80;73.80;;;;;;5032242;28;20032;-66
2022/05/28 13:10:16;;;;;;;7.35;1.45;;;16.80;73.00;;;;;;5032276;28;20092;-66